sensor_id;sensor_type;location;lat;lon;timestamp;P1;durP1;ratioP1;P2;durP2;ratioP2
75342;SDS011;63936;51.006;13.764;2022-11-18T00:00:02;19;;;10;;
75342;SDS011;63936;51.006;13.764;2022-11-18T00:02:01;19;;;10;;
75342;SDS011;63936;51.006;13.764;2022-11-18T00:04:01;15;;;9;;
75342;SDS011;63936;51.006;13.764;2022-11-18T00:06:01;15;;;9;;
75342;SDS011;63936;51.006;13.764;2022-11-18T00:08:01;15;;;9;;
75342;SDS011;63936;51.006;13.764;2022-11-18T00:10:02;16;;;9;;
75342;SDS011;63936;51.006;13.764;2022-11-18T00:12:01;18;;;10;;
75342;SDS011;63936;51.006;13.764;2022-11-18T00:14:02;18;;;10;;
75342;SDS011;63936;51.006;13.764;2022-11-18T00:16:02;16;;;8;;
75342;SDS011;63936;51.006;13.764;2022-11-18T00:18:02;17;;;9;;
75342;SDS011;63936;51.006;13.764;2022-11-18T00:20:02;13;;;7;;
75342;SDS011;63936;51.006;13.764;2022-11-18T00:22:02;14;;;8;;
75342;SDS011;63936;51.006;13.764;2022-11-18T00:24:02;15;;;9;;
75342;SDS011;63936;51.006;13.764;2022-11-18T00:26:01;16;;;9;;
75342;SDS011;63936;51.006;13.764;2022-11-18T00:28:01;16;;;10;;
75342;SDS011;63936;51.006;13.764;2022-11-18T00:30:01;17;;;10;;
75342;SDS011;63936;51.006;13.764;2022-11-18T00:32:01;15;;;9;;
75342;SDS011;63936;51.006;13.764;2022-11-18T00:34:01;15;;;9;;
75342;SDS011;63936;51.006;13.764;2022-11-18T00:36:01;17;;;9;;
75342;SDS011;63936;51.006;13.764;2022-11-18T00:38:01;18;;;10;;
75342;SDS011;63936;51.006;13.764;2022-11-18T00:40:02;13;;;7;;
75342;SDS011;63936;51.006;13.764;2022-11-18T00:42:01;14;;;9;;
75342;SDS011;63936;51.006;13.764;2022-11-18T00:44:01;21;;;10;;
75342;SDS011;63936;51.006;13.764;2022-11-18T00:46:02;20;;;11;;
75342;SDS011;63936;51.006;13.764;2022-11-18T00:48:02;16;;;9;;
75342;SDS011;63936;51.006;13.764;2022-11-18T00:50:02;16;;;9;;
75342;SDS011;63936;51.006;13.764;2022-11-18T00:52:01;16;;;9;;
75342;SDS011;63936;51.006;13.764;2022-11-18T00:54:01;16;;;9;;
75342;SDS011;63936;51.006;13.764;2022-11-18T00:56:01;17;;;9;;
75342;SDS011;63936;51.006;13.764;2022-11-18T00:58:01;15;;;9;;
75342;SDS011;63936;51.006;13.764;2022-11-18T01:00:02;18;;;11;;
75342;SDS011;63936;51.006;13.764;2022-11-18T01:02:04;19;;;11;;
75342;SDS011;63936;51.006;13.764;2022-11-18T01:04:02;15;;;9;;
75342;SDS011;63936;51.006;13.764;2022-11-18T01:06:04;17;;;9;;
75342;SDS011;63936;51.006;13.764;2022-11-18T01:08:03;18;;;10;;
75342;SDS011;63936;51.006;13.764;2022-11-18T01:10:04;16;;;9;;
75342;SDS011;63936;51.006;13.764;2022-11-18T01:12:03;15;;;9;;
75342;SDS011;63936;51.006;13.764;2022-11-18T01:14:02;17;;;10;;
75342;SDS011;63936;51.006;13.764;2022-11-18T01:16:02;18;;;10;;
75342;SDS011;63936;51.006;13.764;2022-11-18T01:18:02;20;;;11;;
75342;SDS011;63936;51.006;13.764;2022-11-18T01:20:04;18;;;11;;
75342;SDS011;63936;51.006;13.764;2022-11-18T01:22:01;18;;;11;;
75342;SDS011;63936;51.006;13.764;2022-11-18T01:24:01;17;;;10;;
75342;SDS011;63936;51.006;13.764;2022-11-18T01:26:03;16;;;9;;
75342;SDS011;63936;51.006;13.764;2022-11-18T01:28:02;17;;;9;;
75342;SDS011;63936;51.006;13.764;2022-11-18T01:30:03;18;;;10;;
75342;SDS011;63936;51.006;13.764;2022-11-18T01:32:03;17;;;10;;
75342;SDS011;63936;51.006;13.764;2022-11-18T01:34:01;16;;;10;;
75342;SDS011;63936;51.006;13.764;2022-11-18T01:36:02;17;;;10;;
75342;SDS011;63936;51.006;13.764;2022-11-18T01:38:02;15;;;9;;
75342;SDS011;63936;51.006;13.764;2022-11-18T01:40:03;15;;;8;;
75342;SDS011;63936;51.006;13.764;2022-11-18T01:42:02;16;;;8;;
75342;SDS011;63936;51.006;13.764;2022-11-18T01:44:02;20;;;10;;
75342;SDS011;63936;51.006;13.764;2022-11-18T01:46:02;18;;;10;;
75342;SDS011;63936;51.006;13.764;2022-11-18T01:48:03;16;;;10;;
75342;SDS011;63936;51.006;13.764;2022-11-18T01:50:02;16;;;9;;
75342;SDS011;63936;51.006;13.764;2022-11-18T01:52:02;16;;;10;;
75342;SDS011;63936;51.006;13.764;2022-11-18T01:54:03;20;;;11;;
75342;SDS011;63936;51.006;13.764;2022-11-18T01:56:02;19;;;10;;
75342;SDS011;63936;51.006;13.764;2022-11-18T01:58:02;18;;;10;;
75342;SDS011;63936;51.006;13.764;2022-11-18T02:00:03;17;;;9;;
75342;SDS011;63936;51.006;13.764;2022-11-18T02:02:02;14;;;8;;
75342;SDS011;63936;51.006;13.764;2022-11-18T02:04:01;12;;;7;;
75342;SDS011;63936;51.006;13.764;2022-11-18T02:06:01;15;;;8;;
75342;SDS011;63936;51.006;13.764;2022-11-18T02:08:02;16;;;9;;
75342;SDS011;63936;51.006;13.764;2022-11-18T02:10:02;15;;;8;;
75342;SDS011;63936;51.006;13.764;2022-11-18T02:12:01;14;;;8;;
75342;SDS011;63936;51.006;13.764;2022-11-18T02:14:02;14;;;8;;
75342;SDS011;63936;51.006;13.764;2022-11-18T02:16:03;17;;;9;;
75342;SDS011;63936;51.006;13.764;2022-11-18T02:18:03;15;;;8;;
75342;SDS011;63936;51.006;13.764;2022-11-18T02:20:22;16;;;9;;
75342;SDS011;63936;51.006;13.764;2022-11-18T02:22:04;18;;;10;;
75342;SDS011;63936;51.006;13.764;2022-11-18T02:24:08;13;;;8;;
75342;SDS011;63936;51.006;13.764;2022-11-18T02:26:07;15;;;8;;
75342;SDS011;63936;51.006;13.764;2022-11-18T02:28:06;13;;;7;;
75342;SDS011;63936;51.006;13.764;2022-11-18T02:30:02;15;;;9;;
75342;SDS011;63936;51.006;13.764;2022-11-18T02:32:02;20;;;10;;
75342;SDS011;63936;51.006;13.764;2022-11-18T02:34:02;15;;;8;;
75342;SDS011;63936;51.006;13.764;2022-11-18T02:36:03;13;;;8;;
75342;SDS011;63936;51.006;13.764;2022-11-18T02:38:02;16;;;9;;
75342;SDS011;63936;51.006;13.764;2022-11-18T02:40:03;16;;;9;;
75342;SDS011;63936;51.006;13.764;2022-11-18T02:42:02;17;;;9;;
75342;SDS011;63936;51.006;13.764;2022-11-18T02:44:03;17;;;10;;
75342;SDS011;63936;51.006;13.764;2022-11-18T02:46:02;17;;;10;;
75342;SDS011;63936;51.006;13.764;2022-11-18T02:48:02;16;;;9;;
75342;SDS011;63936;51.006;13.764;2022-11-18T02:50:03;16;;;9;;
75342;SDS011;63936;51.006;13.764;2022-11-18T02:52:02;14;;;8;;
75342;SDS011;63936;51.006;13.764;2022-11-18T02:54:03;12;;;7;;
75342;SDS011;63936;51.006;13.764;2022-11-18T02:56:01;15;;;9;;
75342;SDS011;63936;51.006;13.764;2022-11-18T02:58:01;16;;;9;;
75342;SDS011;63936;51.006;13.764;2022-11-18T03:00:02;14;;;8;;
75342;SDS011;63936;51.006;13.764;2022-11-18T03:02:01;15;;;9;;
75342;SDS011;63936;51.006;13.764;2022-11-18T03:04:01;18;;;9;;
75342;SDS011;63936;51.006;13.764;2022-11-18T03:06:06;17;;;9;;
75342;SDS011;63936;51.006;13.764;2022-11-18T03:08:02;19;;;10;;
75342;SDS011;63936;51.006;13.764;2022-11-18T03:10:02;18;;;9;;
75342;SDS011;63936;51.006;13.764;2022-11-18T03:12:02;16;;;9;;
75342;SDS011;63936;51.006;13.764;2022-11-18T03:14:06;15;;;9;;
75342;SDS011;63936;51.006;13.764;2022-11-18T03:16:02;15;;;9;;
75342;SDS011;63936;51.006;13.764;2022-11-18T03:18:04;16;;;9;;
75342;SDS011;63936;51.006;13.764;2022-11-18T03:20:06;15;;;8;;
75342;SDS011;63936;51.006;13.764;2022-11-18T03:22:05;16;;;8;;
75342;SDS011;63936;51.006;13.764;2022-11-18T03:24:04;19;;;9;;
75342;SDS011;63936;51.006;13.764;2022-11-18T03:26:02;18;;;9;;
75342;SDS011;63936;51.006;13.764;2022-11-18T03:28:02;15;;;8;;
75342;SDS011;63936;51.006;13.764;2022-11-18T03:30:02;16;;;9;;
75342;SDS011;63936;51.006;13.764;2022-11-18T03:32:02;18;;;9;;
75342;SDS011;63936;51.006;13.764;2022-11-18T03:34:02;17;;;8;;
75342;SDS011;63936;51.006;13.764;2022-11-18T03:36:02;18;;;9;;
75342;SDS011;63936;51.006;13.764;2022-11-18T03:38:02;17;;;9;;
75342;SDS011;63936;51.006;13.764;2022-11-18T03:40:03;15;;;8;;
75342;SDS011;63936;51.006;13.764;2022-11-18T03:42:03;15;;;9;;
75342;SDS011;63936;51.006;13.764;2022-11-18T03:44:03;16;;;9;;
75342;SDS011;63936;51.006;13.764;2022-11-18T03:46:04;16;;;9;;
75342;SDS011;63936;51.006;13.764;2022-11-18T03:48:03;17;;;8;;
75342;SDS011;63936;51.006;13.764;2022-11-18T03:50:03;17;;;8;;
75342;SDS011;63936;51.006;13.764;2022-11-18T03:52:02;17;;;9;;
75342;SDS011;63936;51.006;13.764;2022-11-18T03:54:05;17;;;9;;
75342;SDS011;63936;51.006;13.764;2022-11-18T03:56:02;17;;;9;;
75342;SDS011;63936;51.006;13.764;2022-11-18T03:58:02;17;;;9;;
75342;SDS011;63936;51.006;13.764;2022-11-18T04:00:03;14;;;8;;
75342;SDS011;63936;51.006;13.764;2022-11-18T04:02:02;14;;;8;;
75342;SDS011;63936;51.006;13.764;2022-11-18T04:04:02;16;;;9;;
75342;SDS011;63936;51.006;13.764;2022-11-18T04:06:03;16;;;9;;
75342;SDS011;63936;51.006;13.764;2022-11-18T04:08:02;17;;;9;;
75342;SDS011;63936;51.006;13.764;2022-11-18T04:10:03;16;;;8;;
75342;SDS011;63936;51.006;13.764;2022-11-18T04:12:02;16;;;8;;
75342;SDS011;63936;51.006;13.764;2022-11-18T04:14:01;16;;;8;;
75342;SDS011;63936;51.006;13.764;2022-11-18T04:16:01;15;;;8;;
75342;SDS011;63936;51.006;13.764;2022-11-18T04:18:01;15;;;8;;
75342;SDS011;63936;51.006;13.764;2022-11-18T04:20:02;16;;;8;;
75342;SDS011;63936;51.006;13.764;2022-11-18T04:22:02;17;;;8;;
75342;SDS011;63936;51.006;13.764;2022-11-18T04:24:02;15;;;8;;
75342;SDS011;63936;51.006;13.764;2022-11-18T04:26:02;17;;;8;;
75342;SDS011;63936;51.006;13.764;2022-11-18T04:28:02;18;;;9;;
75342;SDS011;63936;51.006;13.764;2022-11-18T04:30:03;15;;;8;;
75342;SDS011;63936;51.006;13.764;2022-11-18T04:32:02;13;;;8;;
75342;SDS011;63936;51.006;13.764;2022-11-18T04:34:01;14;;;8;;
75342;SDS011;63936;51.006;13.764;2022-11-18T04:36:01;15;;;8;;
75342;SDS011;63936;51.006;13.764;2022-11-18T04:38:01;16;;;8;;
75342;SDS011;63936;51.006;13.764;2022-11-18T04:40:02;15;;;8;;
75342;SDS011;63936;51.006;13.764;2022-11-18T04:42:01;14;;;8;;
75342;SDS011;63936;51.006;13.764;2022-11-18T04:44:01;16;;;8;;
75342;SDS011;63936;51.006;13.764;2022-11-18T04:46:01;16;;;8;;
75342;SDS011;63936;51.006;13.764;2022-11-18T04:48:02;15;;;8;;
75342;SDS011;63936;51.006;13.764;2022-11-18T04:50:02;16;;;8;;
75342;SDS011;63936;51.006;13.764;2022-11-18T04:52:02;16;;;8;;
75342;SDS011;63936;51.006;13.764;2022-11-18T04:54:02;17;;;9;;
75342;SDS011;63936;51.006;13.764;2022-11-18T04:56:04;17;;;9;;
75342;SDS011;63936;51.006;13.764;2022-11-18T04:58:01;16;;;9;;
75342;SDS011;63936;51.006;13.764;2022-11-18T05:00:01;18;;;9;;
75342;SDS011;63936;51.006;13.764;2022-11-18T05:02:01;18;;;9;;
75342;SDS011;63936;51.006;13.764;2022-11-18T05:04:01;17;;;8;;
75342;SDS011;63936;51.006;13.764;2022-11-18T05:06:01;13;;;8;;
75342;SDS011;63936;51.006;13.764;2022-11-18T05:08:01;29;;;10;;
75342;SDS011;63936;51.006;13.764;2022-11-18T05:10:02;17;;;8;;
75342;SDS011;63936;51.006;13.764;2022-11-18T05:12:02;20;;;11;;
75342;SDS011;63936;51.006;13.764;2022-11-18T05:14:02;18;;;10;;
75342;SDS011;63936;51.006;13.764;2022-11-18T05:16:01;20;;;11;;
75342;SDS011;63936;51.006;13.764;2022-11-18T05:18:01;20;;;11;;
75342;SDS011;63936;51.006;13.764;2022-11-18T05:20:01;17;;;11;;
75342;SDS011;63936;51.006;13.764;2022-11-18T05:22:01;16;;;10;;
75342;SDS011;63936;51.006;13.764;2022-11-18T05:24:02;19;;;11;;
75342;SDS011;63936;51.006;13.764;2022-11-18T05:26:02;19;;;10;;
75342;SDS011;63936;51.006;13.764;2022-11-18T05:28:01;22;;;12;;
75342;SDS011;63936;51.006;13.764;2022-11-18T05:30:02;17;;;10;;
75342;SDS011;63936;51.006;13.764;2022-11-18T05:32:01;19;;;11;;
75342;SDS011;63936;51.006;13.764;2022-11-18T05:34:01;19;;;11;;
75342;SDS011;63936;51.006;13.764;2022-11-18T05:36:02;22;;;12;;
75342;SDS011;63936;51.006;13.764;2022-11-18T05:38:02;22;;;12;;
75342;SDS011;63936;51.006;13.764;2022-11-18T05:40:01;22;;;11;;
75342;SDS011;63936;51.006;13.764;2022-11-18T05:42:01;19;;;11;;
75342;SDS011;63936;51.006;13.764;2022-11-18T05:44:01;20;;;11;;
75342;SDS011;63936;51.006;13.764;2022-11-18T05:46:02;22;;;11;;
75342;SDS011;63936;51.006;13.764;2022-11-18T05:48:01;22;;;12;;
75342;SDS011;63936;51.006;13.764;2022-11-18T05:50:01;20;;;11;;
75342;SDS011;63936;51.006;13.764;2022-11-18T05:52:01;21;;;11;;
75342;SDS011;63936;51.006;13.764;2022-11-18T05:54:03;20;;;11;;
75342;SDS011;63936;51.006;13.764;2022-11-18T05:56:03;20;;;10;;
75342;SDS011;63936;51.006;13.764;2022-11-18T05:58:01;18;;;10;;
75342;SDS011;63936;51.006;13.764;2022-11-18T06:00:02;19;;;11;;
75342;SDS011;63936;51.006;13.764;2022-11-18T06:02:02;19;;;11;;
75342;SDS011;63936;51.006;13.764;2022-11-18T06:04:02;20;;;10;;
75342;SDS011;63936;51.006;13.764;2022-11-18T06:06:03;20;;;10;;
75342;SDS011;63936;51.006;13.764;2022-11-18T06:08:02;19;;;10;;
75342;SDS011;63936;51.006;13.764;2022-11-18T06:10:05;19;;;11;;
75342;SDS011;63936;51.006;13.764;2022-11-18T06:12:02;22;;;11;;
75342;SDS011;63936;51.006;13.764;2022-11-18T06:14:02;22;;;11;;
75342;SDS011;63936;51.006;13.764;2022-11-18T06:16:02;18;;;9;;
75342;SDS011;63936;51.006;13.764;2022-11-18T06:18:02;17;;;9;;
75342;SDS011;63936;51.006;13.764;2022-11-18T06:20:02;19;;;9;;
75342;SDS011;63936;51.006;13.764;2022-11-18T06:22:01;20;;;10;;
75342;SDS011;63936;51.006;13.764;2022-11-18T06:24:01;20;;;10;;
75342;SDS011;63936;51.006;13.764;2022-11-18T06:26:03;21;;;11;;
75342;SDS011;63936;51.006;13.764;2022-11-18T06:28:01;21;;;11;;
75342;SDS011;63936;51.006;13.764;2022-11-18T06:30:03;19;;;10;;
75342;SDS011;63936;51.006;13.764;2022-11-18T06:32:02;17;;;9;;
75342;SDS011;63936;51.006;13.764;2022-11-18T06:34:02;18;;;10;;
75342;SDS011;63936;51.006;13.764;2022-11-18T06:36:01;21;;;11;;
75342;SDS011;63936;51.006;13.764;2022-11-18T06:38:02;20;;;11;;
75342;SDS011;63936;51.006;13.764;2022-11-18T06:40:03;19;;;10;;
75342;SDS011;63936;51.006;13.764;2022-11-18T06:42:02;19;;;10;;
75342;SDS011;63936;51.006;13.764;2022-11-18T06:44:02;16;;;9;;
75342;SDS011;63936;51.006;13.764;2022-11-18T06:46:02;18;;;10;;
75342;SDS011;63936;51.006;13.764;2022-11-18T06:48:02;19;;;10;;
75342;SDS011;63936;51.006;13.764;2022-11-18T06:50:05;19;;;10;;
75342;SDS011;63936;51.006;13.764;2022-11-18T06:52:02;18;;;10;;
75342;SDS011;63936;51.006;13.764;2022-11-18T06:54:02;20;;;11;;
75342;SDS011;63936;51.006;13.764;2022-11-18T06:56:02;20;;;9;;
75342;SDS011;63936;51.006;13.764;2022-11-18T06:58:01;23;;;10;;
75342;SDS011;63936;51.006;13.764;2022-11-18T07:00:04;20;;;10;;
75342;SDS011;63936;51.006;13.764;2022-11-18T07:02:02;19;;;9;;
75342;SDS011;63936;51.006;13.764;2022-11-18T07:04:02;19;;;10;;
75342;SDS011;63936;51.006;13.764;2022-11-18T07:06:02;18;;;9;;
75342;SDS011;63936;51.006;13.764;2022-11-18T07:08:02;16;;;8;;
75342;SDS011;63936;51.006;13.764;2022-11-18T07:10:03;15;;;8;;
75342;SDS011;63936;51.006;13.764;2022-11-18T07:12:02;22;;;10;;
75342;SDS011;63936;51.006;13.764;2022-11-18T07:14:02;18;;;9;;
75342;SDS011;63936;51.006;13.764;2022-11-18T07:16:03;14;;;7;;
75342;SDS011;63936;51.006;13.764;2022-11-18T07:18:02;16;;;8;;
75342;SDS011;63936;51.006;13.764;2022-11-18T07:20:04;19;;;9;;
75342;SDS011;63936;51.006;13.764;2022-11-18T07:22:01;16;;;8;;
75342;SDS011;63936;51.006;13.764;2022-11-18T07:24:03;15;;;9;;
75342;SDS011;63936;51.006;13.764;2022-11-18T07:26:02;15;;;8;;
75342;SDS011;63936;51.006;13.764;2022-11-18T07:28:01;17;;;8;;
75342;SDS011;63936;51.006;13.764;2022-11-18T07:30:09;16;;;8;;
75342;SDS011;63936;51.006;13.764;2022-11-18T07:32:01;15;;;8;;
75342;SDS011;63936;51.006;13.764;2022-11-18T07:34:02;13;;;7;;
75342;SDS011;63936;51.006;13.764;2022-11-18T07:36:04;12;;;6;;
75342;SDS011;63936;51.006;13.764;2022-11-18T07:38:02;12;;;6;;
75342;SDS011;63936;51.006;13.764;2022-11-18T07:40:06;12;;;7;;
75342;SDS011;63936;51.006;13.764;2022-11-18T07:42:05;14;;;7;;
75342;SDS011;63936;51.006;13.764;2022-11-18T07:44:04;10;;;6;;
75342;SDS011;63936;51.006;13.764;2022-11-18T07:46:08;13;;;6;;
75342;SDS011;63936;51.006;13.764;2022-11-18T07:48:02;15;;;7;;
75342;SDS011;63936;51.006;13.764;2022-11-18T07:50:05;14;;;8;;
75342;SDS011;63936;51.006;13.764;2022-11-18T07:52:03;11;;;6;;
75342;SDS011;63936;51.006;13.764;2022-11-18T07:54:04;11;;;6;;
75342;SDS011;63936;51.006;13.764;2022-11-18T07:56:06;16;;;7;;
75342;SDS011;63936;51.006;13.764;2022-11-18T07:58:02;13;;;6;;
75342;SDS011;63936;51.006;13.764;2022-11-18T08:00:06;12;;;7;;
75342;SDS011;63936;51.006;13.764;2022-11-18T08:02:01;13;;;7;;
75342;SDS011;63936;51.006;13.764;2022-11-18T08:04:03;16;;;7;;
75342;SDS011;63936;51.006;13.764;2022-11-18T08:06:03;17;;;7;;
75342;SDS011;63936;51.006;13.764;2022-11-18T08:08:02;13;;;6;;
75342;SDS011;63936;51.006;13.764;2022-11-18T08:10:04;14;;;7;;
75342;SDS011;63936;51.006;13.764;2022-11-18T08:12:02;9;;;5;;
75342;SDS011;63936;51.006;13.764;2022-11-18T08:14:02;12;;;6;;
75342;SDS011;63936;51.006;13.764;2022-11-18T08:16:02;12;;;7;;
75342;SDS011;63936;51.006;13.764;2022-11-18T08:18:02;11;;;7;;
75342;SDS011;63936;51.006;13.764;2022-11-18T08:20:05;14;;;8;;
75342;SDS011;63936;51.006;13.764;2022-11-18T08:22:03;14;;;8;;
75342;SDS011;63936;51.006;13.764;2022-11-18T08:24:03;12;;;6;;
75342;SDS011;63936;51.006;13.764;2022-11-18T08:26:03;14;;;7;;
75342;SDS011;63936;51.006;13.764;2022-11-18T08:28:02;14;;;7;;
75342;SDS011;63936;51.006;13.764;2022-11-18T08:30:05;15;;;8;;
75342;SDS011;63936;51.006;13.764;2022-11-18T08:32:02;14;;;7;;
75342;SDS011;63936;51.006;13.764;2022-11-18T08:34:02;15;;;8;;
75342;SDS011;63936;51.006;13.764;2022-11-18T08:36:05;14;;;7;;
75342;SDS011;63936;51.006;13.764;2022-11-18T08:38:02;11;;;6;;
75342;SDS011;63936;51.006;13.764;2022-11-18T08:40:05;11;;;7;;
75342;SDS011;63936;51.006;13.764;2022-11-18T08:42:02;11;;;6;;
75342;SDS011;63936;51.006;13.764;2022-11-18T08:44:02;13;;;6;;
75342;SDS011;63936;51.006;13.764;2022-11-18T08:46:02;13;;;6;;
75342;SDS011;63936;51.006;13.764;2022-11-18T08:48:01;13;;;7;;
75342;SDS011;63936;51.006;13.764;2022-11-18T08:50:04;14;;;8;;
75342;SDS011;63936;51.006;13.764;2022-11-18T08:52:01;14;;;7;;
75342;SDS011;63936;51.006;13.764;2022-11-18T08:54:01;14;;;7;;
75342;SDS011;63936;51.006;13.764;2022-11-18T08:56:02;13;;;7;;
75342;SDS011;63936;51.006;13.764;2022-11-18T08:58:01;16;;;7;;
75342;SDS011;63936;51.006;13.764;2022-11-18T09:00:04;11;;;6;;
75342;SDS011;63936;51.006;13.764;2022-11-18T09:02:04;11;;;6;;
75342;SDS011;63936;51.006;13.764;2022-11-18T09:04:02;13;;;7;;
75342;SDS011;63936;51.006;13.764;2022-11-18T09:06:05;13;;;8;;
75342;SDS011;63936;51.006;13.764;2022-11-18T09:08:02;15;;;8;;
75342;SDS011;63936;51.006;13.764;2022-11-18T09:10:05;15;;;8;;
75342;SDS011;63936;51.006;13.764;2022-11-18T09:12:02;14;;;7;;
75342;SDS011;63936;51.006;13.764;2022-11-18T09:14:02;19;;;8;;
75342;SDS011;63936;51.006;13.764;2022-11-18T09:16:03;14;;;8;;
75342;SDS011;63936;51.006;13.764;2022-11-18T09:18:02;16;;;9;;
75342;SDS011;63936;51.006;13.764;2022-11-18T09:20:04;17;;;9;;
75342;SDS011;63936;51.006;13.764;2022-11-18T09:22:02;17;;;9;;
75342;SDS011;63936;51.006;13.764;2022-11-18T09:24:02;15;;;8;;
75342;SDS011;63936;51.006;13.764;2022-11-18T09:26:03;17;;;9;;
75342;SDS011;63936;51.006;13.764;2022-11-18T09:28:01;17;;;9;;
75342;SDS011;63936;51.006;13.764;2022-11-18T09:30:04;20;;;10;;
75342;SDS011;63936;51.006;13.764;2022-11-18T09:32:02;18;;;9;;
75342;SDS011;63936;51.006;13.764;2022-11-18T09:34:02;19;;;10;;
75342;SDS011;63936;51.006;13.764;2022-11-18T09:36:03;18;;;9;;
75342;SDS011;63936;51.006;13.764;2022-11-18T09:38:02;19;;;10;;
75342;SDS011;63936;51.006;13.764;2022-11-18T09:40:04;17;;;10;;
75342;SDS011;63936;51.006;13.764;2022-11-18T09:42:05;18;;;10;;
75342;SDS011;63936;51.006;13.764;2022-11-18T09:44:04;13;;;7;;
75342;SDS011;63936;51.006;13.764;2022-11-18T09:46:04;13;;;7;;
75342;SDS011;63936;51.006;13.764;2022-11-18T09:48:06;15;;;8;;
75342;SDS011;63936;51.006;13.764;2022-11-18T09:50:04;15;;;8;;
75342;SDS011;63936;51.006;13.764;2022-11-18T09:52:03;12;;;6;;
75342;SDS011;63936;51.006;13.764;2022-11-18T09:54:01;14;;;8;;
75342;SDS011;63936;51.006;13.764;2022-11-18T09:56:02;11;;;6;;
75342;SDS011;63936;51.006;13.764;2022-11-18T09:58:02;13;;;7;;
75342;SDS011;63936;51.006;13.764;2022-11-18T10:00:12;17;;;9;;
75342;SDS011;63936;51.006;13.764;2022-11-18T10:02:07;16;;;9;;
75342;SDS011;63936;51.006;13.764;2022-11-18T10:04:02;17;;;9;;
75342;SDS011;63936;51.006;13.764;2022-11-18T10:06:03;14;;;8;;
75342;SDS011;63936;51.006;13.764;2022-11-18T10:08:03;16;;;8;;
75342;SDS011;63936;51.006;13.764;2022-11-18T10:10:02;18;;;9;;
75342;SDS011;63936;51.006;13.764;2022-11-18T10:12:06;19;;;10;;
75342;SDS011;63936;51.006;13.764;2022-11-18T10:14:05;20;;;11;;
75342;SDS011;63936;51.006;13.764;2022-11-18T10:16:03;20;;;11;;
75342;SDS011;63936;51.006;13.764;2022-11-18T10:18:05;21;;;10;;
75342;SDS011;63936;51.006;13.764;2022-11-18T10:20:07;21;;;10;;
75342;SDS011;63936;51.006;13.764;2022-11-18T10:22:05;20;;;10;;
75342;SDS011;63936;51.006;13.764;2022-11-18T10:24:03;19;;;10;;
75342;SDS011;63936;51.006;13.764;2022-11-18T10:26:02;21;;;12;;
75342;SDS011;63936;51.006;13.764;2022-11-18T10:28:12;16;;;9;;
75342;SDS011;63936;51.006;13.764;2022-11-18T10:30:05;12;;;7;;
75342;SDS011;63936;51.006;13.764;2022-11-18T10:32:02;12;;;7;;
75342;SDS011;63936;51.006;13.764;2022-11-18T10:34:01;17;;;9;;
75342;SDS011;63936;51.006;13.764;2022-11-18T10:36:07;21;;;9;;
75342;SDS011;63936;51.006;13.764;2022-11-18T10:38:03;19;;;9;;
75342;SDS011;63936;51.006;13.764;2022-11-18T10:40:04;19;;;10;;
75342;SDS011;63936;51.006;13.764;2022-11-18T10:42:02;21;;;11;;
75342;SDS011;63936;51.006;13.764;2022-11-18T10:44:01;14;;;7;;
75342;SDS011;63936;51.006;13.764;2022-11-18T10:46:08;14;;;8;;
75342;SDS011;63936;51.006;13.764;2022-11-18T10:48:06;17;;;9;;
75342;SDS011;63936;51.006;13.764;2022-11-18T10:50:24;19;;;10;;
75342;SDS011;63936;51.006;13.764;2022-11-18T10:52:05;16;;;9;;
75342;SDS011;63936;51.006;13.764;2022-11-18T10:54:06;16;;;9;;
75342;SDS011;63936;51.006;13.764;2022-11-18T10:56:02;14;;;7;;
75342;SDS011;63936;51.006;13.764;2022-11-18T10:58:02;19;;;8;;
75342;SDS011;63936;51.006;13.764;2022-11-18T11:00:02;13;;;6;;
75342;SDS011;63936;51.006;13.764;2022-11-18T11:02:02;15;;;8;;
75342;SDS011;63936;51.006;13.764;2022-11-18T11:04:03;17;;;8;;
75342;SDS011;63936;51.006;13.764;2022-11-18T11:06:37;22;;;8;;
75342;SDS011;63936;51.006;13.764;2022-11-18T11:08:02;14;;;7;;
75342;SDS011;63936;51.006;13.764;2022-11-18T11:10:16;11;;;6;;
75342;SDS011;63936;51.006;13.764;2022-11-18T11:12:02;15;;;7;;
75342;SDS011;63936;51.006;13.764;2022-11-18T11:14:04;14;;;8;;
75342;SDS011;63936;51.006;13.764;2022-11-18T11:16:02;24;;;8;;
75342;SDS011;63936;51.006;13.764;2022-11-18T11:18:02;12;;;6;;
75342;SDS011;63936;51.006;13.764;2022-11-18T11:20:03;33;;;8;;
75342;SDS011;63936;51.006;13.764;2022-11-18T11:22:01;33;;;8;;
75342;SDS011;63936;51.006;13.764;2022-11-18T11:24:02;16;;;6;;
75342;SDS011;63936;51.006;13.764;2022-11-18T11:26:02;16;;;6;;
75342;SDS011;63936;51.006;13.764;2022-11-18T11:28:02;14;;;7;;
75342;SDS011;63936;51.006;13.764;2022-11-18T11:30:04;16;;;8;;
75342;SDS011;63936;51.006;13.764;2022-11-18T11:32:05;14;;;7;;
75342;SDS011;63936;51.006;13.764;2022-11-18T11:34:03;15;;;7;;
75342;SDS011;63936;51.006;13.764;2022-11-18T11:36:05;19;;;9;;
75342;SDS011;63936;51.006;13.764;2022-11-18T11:38:03;24;;;9;;
75342;SDS011;63936;51.006;13.764;2022-11-18T11:40:05;16;;;8;;
75342;SDS011;63936;51.006;13.764;2022-11-18T11:42:03;16;;;8;;
75342;SDS011;63936;51.006;13.764;2022-11-18T11:44:06;22;;;9;;
75342;SDS011;63936;51.006;13.764;2022-11-18T11:46:06;20;;;9;;
75342;SDS011;63936;51.006;13.764;2022-11-18T11:48:06;22;;;10;;
75342;SDS011;63936;51.006;13.764;2022-11-18T11:50:04;19;;;9;;
75342;SDS011;63936;51.006;13.764;2022-11-18T11:52:02;12;;;6;;
75342;SDS011;63936;51.006;13.764;2022-11-18T11:54:12;14;;;6;;
75342;SDS011;63936;51.006;13.764;2022-11-18T11:56:03;13;;;6;;
75342;SDS011;63936;51.006;13.764;2022-11-18T11:58:05;15;;;7;;
75342;SDS011;63936;51.006;13.764;2022-11-18T12:00:03;13;;;7;;
75342;SDS011;63936;51.006;13.764;2022-11-18T12:02:13;19;;;8;;
75342;SDS011;63936;51.006;13.764;2022-11-18T12:04:03;18;;;9;;
75342;SDS011;63936;51.006;13.764;2022-11-18T12:06:01;20;;;10;;
75342;SDS011;63936;51.006;13.764;2022-11-18T12:08:02;22;;;10;;
75342;SDS011;63936;51.006;13.764;2022-11-18T12:10:04;22;;;10;;
75342;SDS011;63936;51.006;13.764;2022-11-18T12:12:03;19;;;10;;
75342;SDS011;63936;51.006;13.764;2022-11-18T12:14:02;20;;;10;;
75342;SDS011;63936;51.006;13.764;2022-11-18T12:16:05;23;;;10;;
75342;SDS011;63936;51.006;13.764;2022-11-18T12:18:03;22;;;11;;
75342;SDS011;63936;51.006;13.764;2022-11-18T12:20:15;21;;;11;;
75342;SDS011;63936;51.006;13.764;2022-11-18T12:22:02;23;;;11;;
75342;SDS011;63936;51.006;13.764;2022-11-18T12:24:23;22;;;12;;
75342;SDS011;63936;51.006;13.764;2022-11-18T12:26:03;26;;;13;;
75342;SDS011;63936;51.006;13.764;2022-11-18T12:28:02;20;;;10;;
75342;SDS011;63936;51.006;13.764;2022-11-18T12:30:02;22;;;10;;
75342;SDS011;63936;51.006;13.764;2022-11-18T12:32:01;23;;;9;;
75342;SDS011;63936;51.006;13.764;2022-11-18T12:34:02;22;;;10;;
75342;SDS011;63936;51.006;13.764;2022-11-18T12:36:01;25;;;12;;
75342;SDS011;63936;51.006;13.764;2022-11-18T12:38:01;27;;;13;;
75342;SDS011;63936;51.006;13.764;2022-11-18T12:40:02;24;;;13;;
75342;SDS011;63936;51.006;13.764;2022-11-18T12:42:02;22;;;11;;
75342;SDS011;63936;51.006;13.764;2022-11-18T12:44:04;23;;;11;;